Time;durP1;ratioP1;P1;durP2;ratioP2;P2;SDS_P1;SDS_P2;PMS_P1;PMS_P2;Temp;Humidity;BMP_temperature;BMP_pressure;BME280_temperature;BME280_humidity;BME280_pressure;Samples;Min_cycle;Max_cycle;Signal;HPM_P1;HPM_P2
2023/05/28 07:52:07;;;;;;;16.50;6.30;;;;;;;;;;6270307;22;20506;-95
2023/05/28 07:54:33;;;;;;;22.42;6.40;;;;;;;;;;6279430;22;20011;-94
2023/05/28 07:57:00;;;;;;;21.05;5.65;;;;;;;;;;6283524;22;19995;-94
2023/05/28 07:59:26;;;;;;;19.95;6.32;;;;;;;;;;6286305;22;20008;-94
2023/05/28 08:01:52;;;;;;;20.33;5.70;;;;;;;;;;6257685;22;20011;-95
2023/05/28 08:04:20;;;;;;;9.75;5.07;;;;;;;;;;6280676;22;20034;-95
2023/05/28 08:06:45;;;;;;;12.30;5.40;;;;;;;;;;6280781;22;20000;-94
2023/05/28 08:09:10;;;;;;;12.85;4.30;;;;;;;;;;6277881;22;20000;-95
2023/05/28 08:11:35;;;;;;;10.60;4.60;;;;;;;;;;6281287;22;20026;-94
2023/05/28 08:14:02;;;;;;;13.27;5.90;;;;;;;;;;6281990;22;20008;-94
2023/05/28 08:16:27;;;;;;;15.07;5.05;;;;;;;;;;6280191;22;20018;-94
2023/05/28 08:18:55;;;;;;;10.35;4.07;;;;;;;;;;6279875;22;20003;-95
2023/05/28 08:21:21;;;;;;;12.73;4.68;;;;;;;;;;6278261;22;20004;-94
2023/05/28 08:23:46;;;;;;;15.48;4.82;;;;;;;;;;6278821;22;20015;-95
2023/05/28 08:26:12;;;;;;;13.38;4.80;;;;;;;;;;6278012;22;20391;-94
2023/05/28 08:28:37;;;;;;;18.50;4.40;;;;;;;;;;6276474;22;20023;-93
2023/05/28 08:31:02;;;;;;;12.63;4.65;;;;;;;;;;6277554;22;20106;-95
2023/05/28 08:33:27;;;;;;;11.30;5.18;;;;;;;;;;6277825;22;20007;-94
2023/05/28 08:35:54;;;;;;;13.07;4.72;;;;;;;;;;6278368;22;20000;-95
2023/05/28 08:38:20;;;;;;;11.88;4.20;;;;;;;;;;6275850;22;20010;-94
2023/05/28 08:40:50;;;;;;;14.88;4.80;;;;;;;;;;6277206;22;20000;-94
2023/05/28 08:43:19;;;;;;;15.07;4.43;;;;;;;;;;6276878;22;20003;-94
2023/05/28 08:45:45;;;;;;;11.55;3.72;;;;;;;;;;6278209;22;19999;-94
2023/05/28 08:48:10;;;;;;;12.55;3.90;;;;;;;;;;6277631;22;20011;-94
2023/05/28 08:50:41;;;;;;;10.82;4.30;;;;;;;;;;6278923;22;20079;-94
2023/05/28 08:53:07;;;;;;;11.10;4.00;;;;;;;;;;6278341;22;20008;-95
2023/05/28 08:55:34;;;;;;;13.60;3.30;;;;;;;;;;6278620;22;20111;-94
2023/05/28 08:58:00;;;;;;;13.23;4.30;;;;;;;;;;6281795;22;20054;-94
2023/05/28 09:00:25;;;;;;;7.32;2.85;;;;;;;;;;6283006;22;20015;-94
2023/05/28 09:02:51;;;;;;;8.70;3.10;;;;;;;;;;6281336;22;20015;-94
2023/05/28 09:05:18;;;;;;;11.57;3.33;;;;;;;;;;6283491;22;20373;-94
2023/05/28 09:07:47;;;;;;;12.00;3.75;;;;;;;;;;6288127;22;19999;-94
2023/05/28 09:10:12;;;;;;;6.55;2.88;;;;;;;;;;6283573;22;20009;-93
2023/05/28 09:12:51;;;;;;;9.93;3.85;;;;;;;;;;6293005;22;20003;-95
2023/05/28 09:15:21;;;;;;;13.48;3.60;;;;;;;;;;6286122;22;20008;-94
2023/05/28 09:17:47;;;;;;;10.30;3.55;;;;;;;;;;6286319;22;20087;-94
2023/05/28 09:20:14;;;;;;;7.45;2.72;;;;;;;;;;6286410;22;19996;-94
2023/05/28 09:22:41;;;;;;;9.70;3.55;;;;;;;;;;6282883;22;20000;-94
2023/05/28 09:25:07;;;;;;;11.43;3.35;;;;;;;;;;6283758;22;20015;-94
2023/05/28 09:27:33;;;;;;;12.70;3.35;;;;;;;;;;6256366;22;20018;-94
2023/05/28 09:30:07;;;;;;;12.48;3.30;;;;;;;;;;6282764;22;20000;-94
2023/05/28 09:32:36;;;;;;;11.18;3.17;;;;;;;;;;6284977;22;20761;-93
2023/05/28 09:35:02;;;;;;;8.07;2.90;;;;;;;;;;6285122;22;20035;-93
2023/05/28 09:37:28;;;;;;;10.40;3.08;;;;;;;;;;6281859;22;20003;-94
2023/05/28 09:40:09;;;;;;;8.98;3.42;;;;;;;;;;6258021;22;20007;-95
2023/05/28 09:42:44;;;;;;;6.75;3.00;;;;;;;;;;6287211;22;20010;-94
2023/05/28 09:45:28;;;;;;;13.00;2.65;;;;;;;;;;6285050;22;20086;-93
2023/05/28 09:47:54;;;;;;;7.60;2.80;;;;;;;;;;6284707;22;20008;-94
2023/05/28 09:50:22;;;;;;;7.88;3.40;;;;;;;;;;6284246;22;20014;-94
2023/05/28 09:52:48;;;;;;;10.65;3.35;;;;;;;;;;6286388;22;20038;-94
2023/05/28 09:55:20;;;;;;;14.63;3.63;;;;;;;;;;6283986;22;20016;-94
2023/05/28 09:57:47;;;;;;;8.88;3.38;;;;;;;;;;6284090;22;19992;-93
2023/05/28 10:00:21;;;;;;;8.20;2.95;;;;;;;;;;6283438;22;20008;-95
2023/05/28 10:02:46;;;;;;;9.25;2.80;;;;;;;;;;6284962;22;20326;-94
2023/05/28 10:05:13;;;;;;;9.95;3.05;;;;;;;;;;6284376;22;19996;-94
2023/05/28 10:07:40;;;;;;;8.00;2.50;;;;;;;;;;6285892;22;20008;-94
2023/05/28 10:10:12;;;;;;;10.80;3.08;;;;;;;;;;6287170;22;20082;-94
2023/05/28 10:12:43;;;;;;;7.18;2.38;;;;;;;;;;6259682;22;20011;-94
2023/05/28 10:15:11;;;;;;;10.50;3.35;;;;;;;;;;6285458;22;20004;-93
2023/05/28 10:17:39;;;;;;;8.75;2.80;;;;;;;;;;6281551;22;20007;-94
2023/05/28 10:20:05;;;;;;;8.90;2.90;;;;;;;;;;6282941;22;19999;-93
2023/05/28 10:22:30;;;;;;;8.10;2.88;;;;;;;;;;6282407;22;20046;-93
2023/05/28 10:25:00;;;;;;;4.70;2.40;;;;;;;;;;6281383;22;20086;-94
2023/05/28 10:27:30;;;;;;;13.05;2.67;;;;;;;;;;6285127;22;20019;-93
2023/05/28 10:29:55;;;;;;;11.43;2.78;;;;;;;;;;6285095;22;20003;-94
2023/05/28 10:32:21;;;;;;;7.05;2.50;;;;;;;;;;6286536;22;20068;-94
2023/05/28 10:34:48;;;;;;;10.15;3.00;;;;;;;;;;6283988;22;20007;-93
2023/05/28 10:37:24;;;;;;;7.60;3.00;;;;;;;;;;6285472;22;20000;-93
2023/05/28 10:39:50;;;;;;;11.00;2.88;;;;;;;;;;6283997;22;20027;-94
2023/05/28 10:42:17;;;;;;;10.00;3.08;;;;;;;;;;6289592;22;20093;-93
2023/05/28 10:44:49;;;;;;;8.10;2.92;;;;;;;;;;6285777;22;19996;-93
2023/05/28 10:47:22;;;;;;;7.05;3.08;;;;;;;;;;6279668;22;20011;-93
2023/05/28 10:49:47;;;;;;;;;;;;;;;;;;6281872;22;20007;-94
2023/05/28 10:52:20;;;;;;;8.32;2.85;;;;;;;;;;6282385;22;19941;-93
2023/05/28 10:54:52;;;;;;;8.48;2.85;;;;;;;;;;6282600;22;20252;-93
2023/05/28 10:57:20;;;;;;;7.10;2.65;;;;;;;;;;6285993;22;20010;-93
2023/05/28 10:59:49;;;;;;;9.15;2.83;;;;;;;;;;6286251;22;20376;-93
2023/05/28 11:02:22;;;;;;;7.63;2.70;;;;;;;;;;6284743;22;20004;-93
2023/05/28 11:04:52;;;;;;;10.27;2.78;;;;;;;;;;6285158;22;20016;-93
2023/05/28 11:07:20;;;;;;;10.55;2.50;;;;;;;;;;6283186;22;20023;-93
2023/05/28 11:09:50;;;;;;;6.20;2.65;;;;;;;;;;6286066;22;20003;-93
2023/05/28 11:12:15;;;;;;;7.10;3.20;;;;;;;;;;6284922;22;20057;-93
2023/05/28 11:14:42;;;;;;;9.45;2.83;;;;;;;;;;6285269;22;20029;-93
2023/05/28 11:17:11;;;;;;;8.82;2.50;;;;;;;;;;6280971;22;20466;-93
2023/05/28 11:19:40;;;;;;;9.00;2.53;;;;;;;;;;6282407;22;20003;-92
2023/05/28 11:22:05;;;;;;;9.05;2.78;;;;;;;;;;6282436;22;19988;-94
2023/05/28 11:24:32;;;;;;;9.15;2.80;;;;;;;;;;6281825;22;20010;-93
2023/05/28 11:26:58;;;;;;;9.85;2.75;;;;;;;;;;6286278;22;20082;-94
2023/05/28 11:29:26;;;;;;;9.77;3.47;;;;;;;;;;6285854;22;20051;-93
2023/05/28 11:31:55;;;;;;;12.48;3.08;;;;;;;;;;6285041;22;20014;-93
2023/05/28 11:34:21;;;;;;;7.30;2.83;;;;;;;;;;6286249;22;20019;-93
2023/05/28 11:36:53;;;;;;;7.50;2.42;;;;;;;;;;6284869;22;20103;-93
2023/05/28 11:39:19;;;;;;;9.18;2.22;;;;;;;;;;6283500;22;20039;-93
2023/05/28 11:41:47;;;;;;;12.25;3.33;;;;;;;;;;6283307;22;20068;-93
2023/05/28 11:44:20;;;;;;;10.10;3.75;;;;;;;;;;6286994;22;20011;-94
2023/05/28 11:46:49;;;;;;;4.47;2.40;;;;;;;;;;6287297;22;20007;-93
2023/05/28 11:49:15;;;;;;;5.85;2.90;;;;;;;;;;6258422;22;20000;-95
2023/05/28 11:51:42;;;;;;;10.93;3.05;;;;;;;;;;6286201;22;20050;-94
2023/05/28 11:54:07;;;;;;;12.07;3.53;;;;;;;;;;6291329;22;20019;-92
2023/05/28 11:56:35;;;;;;;9.68;2.50;;;;;;;;;;6287820;22;20085;-93
2023/05/28 11:59:02;;;;;;;7.35;2.63;;;;;;;;;;6280975;22;19996;-93
2023/05/28 12:01:33;;;;;;;9.00;3.60;;;;;;;;;;6281252;22;20007;-93
2023/05/28 12:04:05;;;;;;;11.18;3.10;;;;;;;;;;6284270;22;19996;-92
2023/05/28 12:06:35;;;;;;;7.65;2.90;;;;;;;;;;6283517;22;20008;-92
2023/05/28 12:09:07;;;;;;;11.30;2.65;;;;;;;;;;6285127;22;19999;-93
2023/05/28 12:11:33;;;;;;;3.80;2.10;;;;;;;;;;6282921;22;20150;-94
2023/05/28 12:14:15;;;;;;;6.55;2.95;;;;;;;;;;6285417;22;20008;-91
2023/05/28 12:16:48;;;;;;;12.07;3.83;;;;;;;;;;6296719;22;20025;-93
2023/05/28 12:19:15;;;;;;;8.70;2.97;;;;;;;;;;6294948;22;20075;-93
2023/05/28 12:21:42;;;;;;;7.63;2.58;;;;;;;;;;6289004;22;20008;-93
2023/05/28 12:24:22;;;;;;;8.50;3.05;;;;;;;;;;6295472;22;20016;-93
2023/05/28 12:26:49;;;;;;;8.32;2.42;;;;;;;;;;6290063;22;19999;-93
2023/05/28 12:29:14;;;;;;;10.20;3.35;;;;;;;;;;6285087;22;19995;-93
2023/05/28 12:31:41;;;;;;;10.50;3.13;;;;;;;;;;6284571;22;20071;-93
2023/05/28 12:34:26;;;;;;;7.25;2.50;;;;;;;;;;6290979;22;20050;-94
2023/05/28 12:36:54;;;;;;;8.68;3.47;;;;;;;;;;6297344;22;20029;-93
2023/05/28 12:39:21;;;;;;;11.82;3.60;;;;;;;;;;6288270;22;20007;-95
2023/05/28 12:41:48;;;;;;;8.55;2.50;;;;;;;;;;6288106;22;20018;-94
2023/05/28 12:44:13;;;;;;;6.53;2.75;;;;;;;;;;6285783;22;20006;-95
2023/05/28 12:46:39;;;;;;;10.60;3.35;;;;;;;;;;6283916;22;20494;-94
2023/05/28 12:49:07;;;;;;;8.60;3.38;;;;;;;;;;6286478;22;20008;-94
2023/05/28 12:51:36;;;;;;;7.90;3.05;;;;;;;;;;6286441;22;20008;-94
2023/05/28 12:54:01;;;;;;;7.03;2.70;;;;;;;;;;6286418;22;20099;-94
2023/05/28 12:56:26;;;;;;;9.43;2.78;;;;;;;;;;6286885;22;20055;-94
2023/05/28 12:58:52;;;;;;;9.38;3.40;;;;;;;;;;6286635;22;20011;-94
2023/05/28 13:01:45;;;;;;;11.00;2.70;;;;;;;;;;6286879;22;20015;-93
2023/05/28 13:04:10;;;;;;;9.63;2.80;;;;;;;;;;6290366;22;20430;-95
2023/05/28 13:06:47;;;;;;;7.38;2.60;;;;;;;;;;6291059;22;20023;-94
2023/05/28 13:09:18;;;;;;;6.38;2.85;;;;;;;;;;6298989;22;20010;-94
2023/05/28 13:11:44;;;;;;;9.95;3.10;;;;;;;;;;6300095;22;19994;-94
2023/05/28 13:14:18;;;;;;;8.23;2.63;;;;;;;;;;6290518;22;20014;-94
2023/05/28 13:17:26;;;;;;;8.13;2.53;;;;;;;;;;6287648;22;20055;-94
2023/05/28 13:19:52;;;;;;;6.55;2.47;;;;;;;;;;6259304;22;20350;-94
2023/05/28 13:22:17;;;;;;;11.60;2.63;;;;;;;;;;6289050;22;20136;-94
2023/05/28 13:24:42;;;;;;;7.25;2.78;;;;;;;;;;6286532;22;20000;-94
2023/05/28 13:27:21;;;;;;;10.75;2.50;;;;;;;;;;6290303;22;20059;-94
2023/05/28 13:29:49;;;;;;;11.27;2.97;;;;;;;;;;6289743;22;19992;-94
2023/05/28 13:32:14;;;;;;;8.35;2.72;;;;;;;;;;6260749;22;20004;-94
2023/05/28 13:34:41;;;;;;;6.22;2.70;;;;;;;;;;6286067;22;20050;-92
2023/05/28 13:37:07;;;;;;;7.45;2.60;;;;;;;;;;6287013;22;20237;-93
2023/05/28 13:39:35;;;;;;;10.80;2.50;;;;;;;;;;6287879;22;20019;-93
2023/05/28 13:42:08;;;;;;;6.28;2.40;;;;;;;;;;6288049;22;20010;-93
2023/05/28 13:44:35;;;;;;;8.90;3.10;;;;;;;;;;6286672;22;20054;-94
2023/05/28 13:47:01;;;;;;;5.38;2.42;;;;;;;;;;6288024;22;20027;-93
2023/05/28 13:49:29;;;;;;;7.57;2.13;;;;;;;;;;6288144;22;20083;-93
2023/05/28 13:51:56;;;;;;;9.05;2.35;;;;;;;;;;6288981;22;20052;-93
2023/05/28 13:54:41;;;;;;;12.77;2.53;;;;;;;;;;6291595;22;20012;-93
2023/05/28 13:57:07;;;;;;;8.02;2.22;;;;;;;;;;6291307;22;19992;-93
2023/05/28 13:59:35;;;;;;;11.63;2.90;;;;;;;;;;6288882;22;20011;-93
2023/05/28 14:05:06;;;;;;;6.47;2.40;;;;;;;;;;6296728;22;19999;-93
2023/05/28 14:07:32;;;;;;;7.82;2.78;;;;;;;;;;6290703;22;20066;-93
2023/05/28 14:09:57;;;;;;;6.68;2.50;;;;;;;;;;6289895;22;20000;-93
2023/05/28 14:12:24;;;;;;;6.65;2.60;;;;;;;;;;6291011;22;20003;-93
2023/05/28 14:14:51;;;;;;;8.13;3.00;;;;;;;;;;6291366;22;19995;-94
2023/05/28 14:17:17;;;;;;;7.13;2.38;;;;;;;;;;6285892;22;20030;-92
2023/05/28 14:19:43;;;;;;;6.45;2.20;;;;;;;;;;6290268;22;20117;-93
2023/05/28 14:22:08;;;;;;;7.10;2.42;;;;;;;;;;6289717;22;20011;-93
2023/05/28 14:24:35;;;;;;;11.13;2.53;;;;;;;;;;6287492;22;20012;-93
2023/05/28 14:27:01;;;;;;;6.00;2.45;;;;;;;;;;6282512;22;20008;-93
2023/05/28 14:29:29;;;;;;;9.52;2.55;;;;;;;;;;6284206;22;20068;-93
2023/05/28 14:31:56;;;;;;;6.20;2.70;;;;;;;;;;6285713;22;19995;-93
2023/05/28 14:34:21;;;;;;;11.68;3.15;;;;;;;;;;6283959;22;20008;-92
2023/05/28 14:36:47;;;;;;;9.52;2.97;;;;;;;;;;6284710;22;20435;-93
2023/05/28 14:39:13;;;;;;;5.53;2.10;;;;;;;;;;6284522;22;20039;-92
2023/05/28 14:41:38;;;;;;;7.60;2.60;;;;;;;;;;6283692;22;20083;-93
2023/05/28 14:44:03;;;;;;;9.77;2.67;;;;;;;;;;6282048;22;20003;-93
2023/05/28 14:46:31;;;;;;;12.00;2.67;;;;;;;;;;6284067;22;20082;-92
2023/05/28 14:49:00;;;;;;;4.65;2.30;;;;;;;;;;6283879;22;20569;-93
2023/05/28 14:51:26;;;;;;;10.27;2.72;;;;;;;;;;6283943;22;20010;-93
2023/05/28 14:53:51;;;;;;;6.78;2.28;;;;;;;;;;6282581;22;20007;-93
2023/05/28 14:56:16;;;;;;;5.18;2.13;;;;;;;;;;6283431;22;20007;-93
2023/05/28 14:58:41;;;;;;;7.70;2.35;;;;;;;;;;6282253;22;20027;-93
2023/05/28 15:01:10;;;;;;;6.07;2.20;;;;;;;;;;6284857;22;20058;-93
2023/05/28 15:03:36;;;;;;;7.40;2.65;;;;;;;;;;6280690;22;20018;-93
2023/05/28 15:06:02;;;;;;;7.10;2.63;;;;;;;;;;6279244;22;20008;-93
2023/05/28 15:08:27;;;;;;;6.20;2.65;;;;;;;;;;6280255;22;20071;-93
2023/05/28 15:10:53;;;;;;;9.43;2.45;;;;;;;;;;6282396;22;20000;-93
2023/05/28 15:13:18;;;;;;;8.95;2.92;;;;;;;;;;6282727;22;20008;-93
2023/05/28 15:15:44;;;;;;;7.45;2.33;;;;;;;;;;6283352;22;20420;-93
2023/05/28 15:18:09;;;;;;;7.47;2.65;;;;;;;;;;6281735;22;20086;-93
2023/05/28 15:20:35;;;;;;;8.57;2.50;;;;;;;;;;6283909;22;20007;-93
2023/05/28 15:23:04;;;;;;;9.88;2.50;;;;;;;;;;6283867;22;20004;-93
2023/05/28 15:25:30;;;;;;;7.68;2.25;;;;;;;;;;6283944;22;20008;-93
2023/05/28 15:27:58;;;;;;;6.38;2.33;;;;;;;;;;6284756;22;20074;-93
2023/05/28 15:30:27;;;;;;;6.63;2.50;;;;;;;;;;6282706;22;20053;-93
2023/05/28 15:32:57;;;;;;;8.05;2.13;;;;;;;;;;6285247;22;20012;-92
2023/05/28 15:35:26;;;;;;;12.32;2.45;;;;;;;;;;6283607;22;20087;-93
2023/05/28 15:37:51;;;;;;;4.75;1.95;;;;;;;;;;6280243;22;20063;-92
2023/05/28 15:40:16;;;;;;;7.85;2.20;;;;;;;;;;6280862;22;19999;-92
2023/05/28 15:42:43;;;;;;;4.72;1.95;;;;;;;;;;6283223;22;20028;-93
2023/05/28 15:45:08;;;;;;;6.88;2.83;;;;;;;;;;6282415;22;20004;-92
2023/05/28 15:47:34;;;;;;;5.63;1.75;;;;;;;;;;6282231;22;20003;-93
2023/05/28 15:49:59;;;;;;;9.25;2.60;;;;;;;;;;6282718;22;20011;-93
2023/05/28 15:52:25;;;;;;;7.70;2.38;;;;;;;;;;6283498;22;20019;-93
2023/05/28 15:54:50;;;;;;;4.43;1.70;;;;;;;;;;6286045;22;20016;-93
2023/05/28 15:57:16;;;;;;;10.77;2.60;;;;;;;;;;6279186;22;20004;-93
2023/05/28 15:59:43;;;;;;;8.93;3.20;;;;;;;;;;6281146;22;20091;-93
2023/05/28 16:02:12;;;;;;;7.07;2.10;;;;;;;;;;6283657;22;20004;-95
2023/05/28 16:04:39;;;;;;;7.15;2.15;;;;;;;;;;6280570;22;19999;-92
2023/05/28 16:07:05;;;;;;;9.05;2.65;;;;;;;;;;6279664;22;20088;-93
2023/05/28 16:09:31;;;;;;;5.20;2.55;;;;;;;;;;6283685;22;19999;-93
2023/05/28 16:11:56;;;;;;;6.15;2.35;;;;;;;;;;6279419;22;20077;-94
2023/05/28 16:14:22;;;;;;;5.90;2.25;;;;;;;;;;6279705;22;20031;-93
2023/05/28 16:16:50;;;;;;;6.45;2.63;;;;;;;;;;6279903;22;20004;-93
2023/05/28 16:19:16;;;;;;;5.75;2.05;;;;;;;;;;6281636;22;20047;-93
2023/05/28 16:21:43;;;;;;;4.65;2.15;;;;;;;;;;6283548;22;20087;-93
2023/05/28 16:24:08;;;;;;;3.83;2.08;;;;;;;;;;6284046;22;20000;-93
2023/05/28 16:26:34;;;;;;;7.50;2.38;;;;;;;;;;6283426;22;20093;-94
2023/05/28 16:29:10;;;;;;;6.53;2.47;;;;;;;;;;6285519;22;20072;-93
2023/05/28 16:31:36;;;;;;;5.38;2.05;;;;;;;;;;6283680;22;20090;-93
2023/05/28 16:34:02;;;;;;;4.68;2.05;;;;;;;;;;6279236;22;20015;-93
2023/05/28 16:36:28;;;;;;;5.82;1.92;;;;;;;;;;6280954;22;19999;-93
2023/05/28 16:38:54;;;;;;;5.05;1.58;;;;;;;;;;6282982;22;20091;-92
2023/05/28 16:41:20;;;;;;;7.57;2.47;;;;;;;;;;6281208;22;20323;-93
2023/05/28 16:43:46;;;;;;;4.60;2.20;;;;;;;;;;6280225;22;20023;-93
2023/05/28 16:46:11;;;;;;;7.43;2.50;;;;;;;;;;6278282;22;20452;-94
2023/05/28 16:48:37;;;;;;;5.28;2.30;;;;;;;;;;6279426;22;20045;-95
2023/05/28 16:51:04;;;;;;;6.75;2.35;;;;;;;;;;6279465;22;20007;-94
2023/05/28 16:53:29;;;;;;;7.80;3.03;;;;;;;;;;6277680;22;20008;-93
2023/05/28 16:55:55;;;;;;;7.07;2.83;;;;;;;;;;6276885;22;20276;-94
2023/05/28 16:58:22;;;;;;;8.82;2.20;;;;;;;;;;6276607;22;20018;-94
2023/05/28 17:00:48;;;;;;;4.55;1.88;;;;;;;;;;6276932;22;20007;-93
2023/05/28 17:03:14;;;;;;;10.63;2.38;;;;;;;;;;6276504;22;20118;-93
2023/05/28 17:05:39;;;;;;;10.40;2.67;;;;;;;;;;6276854;22;20018;-94
2023/05/28 17:08:05;;;;;;;7.35;2.20;;;;;;;;;;6283237;22;20413;-94
2023/05/28 17:10:31;;;;;;;6.55;2.55;;;;;;;;;;6277483;22;20019;-93
2023/05/28 17:12:56;;;;;;;8.40;2.40;;;;;;;;;;6277282;22;20000;-94
2023/05/28 17:15:24;;;;;;;5.22;2.47;;;;;;;;;;6276240;22;20022;-94
2023/05/28 17:17:49;;;;;;;12.18;2.60;;;;;;;;;;6275925;22;20026;-95
2023/05/28 17:20:16;;;;;;;7.32;2.47;;;;;;;;;;6278811;22;20065;-94
2023/05/28 17:22:44;;;;;;;6.68;2.10;;;;;;;;;;6278661;22;20107;-94
2023/05/28 17:25:09;;;;;;;4.97;2.30;;;;;;;;;;6276675;22;20010;-94
2023/05/28 17:27:36;;;;;;;10.30;2.30;;;;;;;;;;6277557;22;20028;-94
2023/05/28 17:30:01;;;;;;;5.38;2.03;;;;;;;;;;6277857;22;20034;-93
2023/05/28 17:32:27;;;;;;;12.80;2.10;;;;;;;;;;6278058;22;20007;-94
2023/05/28 17:34:53;;;;;;;9.55;2.67;;;;;;;;;;6278963;22;20430;-95
2023/05/28 17:37:20;;;;;;;10.85;2.97;;;;;;;;;;6279343;22;20048;-93
2023/05/28 17:39:45;;;;;;;5.47;2.13;;;;;;;;;;6278634;22;20007;-94
2023/05/28 17:42:11;;;;;;;8.57;2.33;;;;;;;;;;6280363;22;19996;-93
2023/05/28 17:44:36;;;;;;;9.32;2.38;;;;;;;;;;6278867;22;20003;-94
2023/05/28 17:47:02;;;;;;;9.10;2.30;;;;;;;;;;6277950;22;20003;-94
2023/05/28 17:49:28;;;;;;;10.02;2.40;;;;;;;;;;6278581;22;20004;-93
2023/05/28 17:51:53;;;;;;;7.55;2.95;;;;;;;;;;6279806;22;20379;-93
2023/05/28 17:54:23;;;;;;;7.50;2.13;;;;;;;;;;6278329;22;20033;-93
2023/05/28 17:56:49;;;;;;;8.52;2.25;;;;;;;;;;6282350;22;20000;-93
2023/05/28 17:59:14;;;;;;;9.05;2.65;;;;;;;;;;6282149;22;20137;-93
2023/05/28 18:01:41;;;;;;;9.98;2.30;;;;;;;;;;6281365;22;20067;-93
2023/05/28 18:04:06;;;;;;;5.45;2.45;;;;;;;;;;6255899;22;20027;-94
2023/05/28 18:06:34;;;;;;;8.30;2.35;;;;;;;;;;6282211;22;20010;-93
2023/05/28 18:09:04;;;;;;;8.15;2.20;;;;;;;;;;6281946;22;20010;-93
2023/05/28 18:11:30;;;;;;;8.38;2.15;;;;;;;;;;6283730;22;20057;-93
2023/05/28 18:13:55;;;;;;;3.55;1.63;;;;;;;;;;6281162;22;20127;-94
2023/05/28 18:16:21;;;;;;;8.63;2.03;;;;;;;;;;6280996;22;20010;-94
2023/05/28 18:18:46;;;;;;;3.83;1.60;;;;;;;;;;6280109;22;20166;-95
2023/05/28 18:21:11;;;;;;;6.15;2.28;;;;;;;;;;6281737;22;20007;-94
2023/05/28 18:23:36;;;;;;;9.07;2.22;;;;;;;;;;6282848;22;19996;-95
2023/05/28 18:26:03;;;;;;;7.43;2.35;;;;;;;;;;6283325;22;20008;-95
2023/05/28 18:28:29;;;;;;;10.43;2.92;;;;;;;;;;6285107;22;20002;-94
2023/05/28 18:30:58;;;;;;;13.38;2.75;;;;;;;;;;6283654;22;20003;-94
2023/05/28 18:33:29;;;;;;;8.13;2.60;;;;;;;;;;6282053;22;20003;-95
2023/05/28 18:35:54;;;;;;;7.55;2.30;;;;;;;;;;6281362;22;20083;-94
2023/05/28 18:38:20;;;;;;;7.25;2.35;;;;;;;;;;6281589;22;20057;-94
2023/05/28 18:40:45;;;;;;;7.45;2.35;;;;;;;;;;6280755;22;20014;-94
2023/05/28 18:43:12;;;;;;;10.05;2.08;;;;;;;;;;6281326;22;20000;-94
2023/05/28 18:45:38;;;;;;;10.07;2.47;;;;;;;;;;6280312;22;20004;-95
2023/05/28 18:48:08;;;;;;;6.55;2.08;;;;;;;;;;6282669;22;20007;-94
2023/05/28 18:50:33;;;;;;;10.18;2.50;;;;;;;;;;6282219;22;19999;-93
2023/05/28 18:52:59;;;;;;;6.45;2.13;;;;;;;;;;6282090;22;20492;-94
2023/05/28 18:55:26;;;;;;;9.95;3.10;;;;;;;;;;6258611;22;20347;-95
2023/05/28 18:57:52;;;;;;;11.85;4.13;;;;;;;;;;6253920;22;19999;-94
2023/05/28 19:00:18;;;;;;;15.77;4.25;;;;;;;;;;6281674;22;20003;-94
2023/05/28 19:02:45;;;;;;;12.60;2.85;;;;;;;;;;6281212;22;20000;-95
2023/05/28 19:05:10;;;;;;;6.07;2.55;;;;;;;;;;6283073;22;20016;-95
2023/05/28 19:07:35;;;;;;;13.40;3.35;;;;;;;;;;6282467;22;20011;-94
2023/05/28 19:10:03;;;;;;;4.97;2.00;;;;;;;;;;6282509;22;20016;-94
2023/05/28 19:12:30;;;;;;;5.80;2.20;;;;;;;;;;6281509;22;20018;-94
2023/05/28 19:14:58;;;;;;;6.53;2.83;;;;;;;;;;6254821;22;20065;-95
2023/05/28 19:17:25;;;;;;;6.18;2.20;;;;;;;;;;6282465;22;19999;-94
2023/05/28 19:20:03;;;;;;;6.38;2.72;;;;;;;;;;6281803;22;20015;-93
2023/05/28 19:22:31;;;;;;;9.95;2.83;;;;;;;;;;6282902;22;20000;-94
2023/05/28 19:24:59;;;;;;;9.85;3.53;;;;;;;;;;6280966;22;20004;-94
2023/05/28 19:27:25;;;;;;;10.35;3.05;;;;;;;;;;6281878;22;20377;-94
2023/05/28 19:29:50;;;;;;;7.75;2.83;;;;;;;;;;6255767;22;20043;-93
2023/05/28 19:32:17;;;;;;;9.93;3.28;;;;;;;;;;6283934;22;20154;-93
2023/05/28 19:34:45;;;;;;;8.68;2.50;;;;;;;;;;6277288;22;20011;-94
2023/05/28 19:37:11;;;;;;;6.47;2.20;;;;;;;;;;6276520;22;20087;-95
2023/05/28 19:39:38;;;;;;;5.45;2.72;;;;;;;;;;6278206;22;20007;-95
2023/05/28 19:42:05;;;;;;;8.20;2.83;;;;;;;;;;6251518;22;20006;-95
2023/05/28 19:44:33;;;;;;;10.20;2.83;;;;;;;;;;6275748;22;20014;-95
2023/05/28 19:47:03;;;;;;;7.13;2.28;;;;;;;;;;6276055;22;20438;-95
2023/05/28 19:49:28;;;;;;;11.95;2.47;;;;;;;;;;6274490;22;20003;-95
2023/05/28 19:52:04;;;;;;;;;;;;;;;;;;;;;
2023/05/28 19:54:34;;;;;;;13.45;2.88;;;;;;;;;;6275891;22;20091;-95
2023/05/28 19:57:02;;;;;;;8.48;2.30;;;;;;;;;;6251409;22;20007;-95
2023/05/28 19:59:27;;;;;;;6.32;2.38;;;;;;;;;;6275722;22;20000;-95
2023/05/28 20:02:00;;;;;;;7.97;2.58;;;;;;;;;;6275691;22;20007;-95
2023/05/28 20:04:29;;;;;;;9.98;2.50;;;;;;;;;;6276131;22;20015;-95
2023/05/28 20:06:59;;;;;;;11.32;2.70;;;;;;;;;;6279833;22;19996;-95
2023/05/28 20:09:25;;;;;;;6.82;2.10;;;;;;;;;;6279526;22;20011;-96
2023/05/28 20:11:52;;;;;;;9.18;2.75;;;;;;;;;;6279072;22;20091;-95
2023/05/28 20:14:26;;;;;;;6.53;2.03;;;;;;;;;;6279832;22;20091;-94
2023/05/28 20:16:56;;;;;;;9.05;2.58;;;;;;;;;;6277685;22;20098;-94
2023/05/28 20:19:23;;;;;;;5.68;2.10;;;;;;;;;;6277315;22;20039;-96
2023/05/28 20:21:54;;;;;;;6.75;2.15;;;;;;;;;;6276173;22;20304;-95
2023/05/28 20:24:20;;;;;;;9.35;2.80;;;;;;;;;;6278929;22;20004;-95
2023/05/28 20:26:46;;;;;;;7.38;2.58;;;;;;;;;;6252595;22;20018;-95
2023/05/28 20:29:11;;;;;;;6.28;3.03;;;;;;;;;;6273737;22;20007;-95
2023/05/28 20:31:39;;;;;;;6.13;2.40;;;;;;;;;;6281435;22;20326;-95
2023/05/28 20:34:07;;;;;;;6.20;2.35;;;;;;;;;;6280297;22;20031;-95
2023/05/28 20:36:36;;;;;;;5.82;2.47;;;;;;;;;;6274759;22;20007;-95
2023/05/28 20:39:03;;;;;;;7.32;2.33;;;;;;;;;;6276016;22;20049;-95
2023/05/28 20:41:28;;;;;;;4.45;2.15;;;;;;;;;;6277264;22;19996;-95
2023/05/28 20:43:57;;;;;;;8.25;2.58;;;;;;;;;;6276990;22;20018;-95
2023/05/28 20:46:23;;;;;;;9.00;2.42;;;;;;;;;;6276305;22;20090;-95
2023/05/28 20:48:52;;;;;;;8.85;2.67;;;;;;;;;;6279750;22;20007;-94
2023/05/28 20:51:19;;;;;;;9.00;2.47;;;;;;;;;;6278416;22;20031;-95
2023/05/28 20:53:44;;;;;;;9.25;2.40;;;;;;;;;;6274166;22;20140;-96
2023/05/28 20:56:11;;;;;;;5.93;2.42;;;;;;;;;;6277044;22;20008;-95
2023/05/28 20:58:37;;;;;;;8.50;2.35;;;;;;;;;;6280153;22;20000;-96
2023/05/28 21:01:04;;;;;;;6.22;2.22;;;;;;;;;;6277201;22;20019;-95
2023/05/28 21:03:31;;;;;;;5.82;2.42;;;;;;;;;;6276084;22;20010;-95
2023/05/28 21:05:57;;;;;;;5.18;2.63;;;;;;;;;;6250514;22;20086;-95
2023/05/28 21:08:22;;;;;;;12.85;2.78;;;;;;;;;;6276649;22;20063;-95
2023/05/28 21:10:52;;;;;;;13.13;2.55;;;;;;;;;;6276640;22;20016;-95
2023/05/28 21:13:23;;;;;;;10.30;2.38;;;;;;;;;;6276425;22;20000;-96
2023/05/28 21:15:49;;;;;;;5.68;2.63;;;;;;;;;;6276741;22;20004;-95
2023/05/28 21:18:15;;;;;;;6.05;2.40;;;;;;;;;;6276591;22;20002;-95
2023/05/28 21:20:42;;;;;;;7.47;2.45;;;;;;;;;;6278798;22;20118;-96
2023/05/28 21:23:30;;;;;;;7.32;2.22;;;;;;;;;;6281193;22;20058;-96
2023/05/28 21:26:00;;;;;;;7.13;2.13;;;;;;;;;;6275167;22;19996;-95
2023/05/28 21:28:28;;;;;;;6.57;2.17;;;;;;;;;;6276138;22;20345;-95
2023/05/28 21:31:00;;;;;;;7.15;1.90;;;;;;;;;;6278031;22;19996;-95
2023/05/28 21:33:26;;;;;;;7.28;2.15;;;;;;;;;;6277585;22;20011;-95
2023/05/28 21:35:55;;;;;;;7.45;2.00;;;;;;;;;;6278974;22;20023;-94
2023/05/28 21:38:26;;;;;;;9.40;3.00;;;;;;;;;;6277071;22;20034;-95
2023/05/28 21:41:14;;;;;;;15.15;2.55;;;;;;;;;;6279164;22;20004;-96
2023/05/28 21:43:42;;;;;;;11.75;2.40;;;;;;;;;;6277741;22;20012;-96
2023/05/28 21:46:09;;;;;;;8.98;2.45;;;;;;;;;;6277560;22;20006;-95
2023/05/28 21:48:34;;;;;;;6.60;2.30;;;;;;;;;;6252520;22;20103;-95
2023/05/28 21:51:36;;;;;;;7.28;2.72;;;;;;;;;;6279264;22;20630;-94
2023/05/28 21:54:03;;;;;;;9.77;2.63;;;;;;;;;;6277375;22;20014;-95
2023/05/28 21:56:36;;;;;;;9.63;2.63;;;;;;;;;;6278117;22;20110;-96
2023/05/28 21:59:09;;;;;;;17.40;3.13;;;;;;;;;;6278364;22;19992;-95
2023/05/28 22:01:37;;;;;;;6.97;2.30;;;;;;;;;;6278028;22;20007;-95
2023/05/28 22:04:14;;;;;;;7.80;2.22;;;;;;;;;;6279983;22;19999;-96
2023/05/28 22:06:55;;;;;;;4.70;2.10;;;;;;;;;;6251777;22;20015;-95
2023/05/28 22:09:20;;;;;;;7.10;2.83;;;;;;;;;;6277338;22;20038;-95
2023/05/28 22:14:42;;;;;;;10.48;3.13;;;;;;;;;;6281206;22;20022;-95
2023/05/28 22:17:12;;;;;;;6.55;2.72;;;;;;;;;;6279381;22;20021;-95
2023/05/28 22:19:45;;;;;;;6.47;2.38;;;;;;;;;;6280579;22;20043;-95
2023/05/28 22:22:15;;;;;;;6.28;2.25;;;;;;;;;;6280638;22;20018;-95
2023/05/28 22:24:44;;;;;;;7.75;2.42;;;;;;;;;;6258486;22;19999;-95
2023/05/28 22:27:13;;;;;;;7.20;2.38;;;;;;;;;;6278447;22;20016;-96
2023/05/28 22:29:50;;;;;;;7.03;2.22;;;;;;;;;;6283400;22;19999;-96
2023/05/28 22:32:22;;;;;;;7.30;2.15;;;;;;;;;;6254581;22;20019;-96
2023/05/28 22:35:13;;;;;;;4.10;2.25;;;;;;;;;;6283082;22;20030;-95
2023/05/28 22:37:46;;;;;;;7.65;2.55;;;;;;;;;;6279924;22;20007;-96
2023/05/28 22:40:32;;;;;;;7.30;2.40;;;;;;;;;;6279178;22;19996;-96
2023/05/28 22:43:10;;;;;;;7.50;2.55;;;;;;;;;;6279766;22;20015;-96